sensor_id;sensor_type;location;lat;lon;timestamp;pressure;altitude;pressure_sealevel;temperature;humidity
11395;BME280;5753;54.402;10.220;2023-07-13T00:01:54;101198.47;;;26.12;46.27
11395;BME280;5753;54.402;10.220;2023-07-13T00:04:23;101200.06;;;25.52;47.15
11395;BME280;5753;54.402;10.220;2023-07-13T00:06:51;101200.00;;;26.58;45.48
11395;BME280;5753;54.402;10.220;2023-07-13T00:09:18;101211.91;;;25.86;46.79
11395;BME280;5753;54.402;10.220;2023-07-13T00:11:45;101203.63;;;26.35;45.55
11395;BME280;5753;54.402;10.220;2023-07-13T00:14:14;101201.94;;;26.34;45.82
11395;BME280;5753;54.402;10.220;2023-07-13T00:16:41;101202.91;;;26.12;45.83
11395;BME280;5753;54.402;10.220;2023-07-13T00:19:10;101204.84;;;25.64;47.30
11395;BME280;5753;54.402;10.220;2023-07-13T00:21:36;101206.88;;;25.80;46.61
11395;BME280;5753;54.402;10.220;2023-07-13T00:24:02;101206.06;;;24.40;50.06
11395;BME280;5753;54.402;10.220;2023-07-13T00:26:30;101198.34;;;25.07;48.36
11395;BME280;5753;54.402;10.220;2023-07-13T00:28:58;101197.66;;;25.46;47.72
11395;BME280;5753;54.402;10.220;2023-07-13T00:31:25;101208.19;;;25.69;47.08
11395;BME280;5753;54.402;10.220;2023-07-13T00:33:51;101205.50;;;25.71;46.74
11395;BME280;5753;54.402;10.220;2023-07-13T00:36:19;101201.41;;;25.40;47.16
11395;BME280;5753;54.402;10.220;2023-07-13T00:38:46;101205.72;;;25.21;48.19
11395;BME280;5753;54.402;10.220;2023-07-13T00:41:13;101206.16;;;25.54;47.45
11395;BME280;5753;54.402;10.220;2023-07-13T00:43:40;101205.63;;;25.68;47.06
11395;BME280;5753;54.402;10.220;2023-07-13T00:48:51;101193.31;;;25.23;48.03
11395;BME280;5753;54.402;10.220;2023-07-13T00:51:23;101195.06;;;25.68;47.29
11395;BME280;5753;54.402;10.220;2023-07-13T00:53:52;101194.13;;;25.02;48.58
11395;BME280;5753;54.402;10.220;2023-07-13T00:56:19;101208.13;;;25.04;48.66
11395;BME280;5753;54.402;10.220;2023-07-13T00:58:45;101198.59;;;26.09;46.71
11395;BME280;5753;54.402;10.220;2023-07-13T01:01:12;101194.19;;;25.67;46.89
11395;BME280;5753;54.402;10.220;2023-07-13T01:03:38;101201.28;;;26.87;44.41
11395;BME280;5753;54.402;10.220;2023-07-13T01:06:06;101189.00;;;26.67;44.91
11395;BME280;5753;54.402;10.220;2023-07-13T01:08:33;101195.03;;;26.10;46.06
11395;BME280;5753;54.402;10.220;2023-07-13T01:10:59;101199.53;;;26.08;45.74
11395;BME280;5753;54.402;10.220;2023-07-13T01:13:25;101193.47;;;26.06;46.12
11395;BME280;5753;54.402;10.220;2023-07-13T01:15:52;101199.56;;;25.64;47.04
11395;BME280;5753;54.402;10.220;2023-07-13T01:18:21;101197.25;;;24.88;49.13
11395;BME280;5753;54.402;10.220;2023-07-13T01:23:21;101201.16;;;25.25;48.07
11395;BME280;5753;54.402;10.220;2023-07-13T01:25:48;101201.81;;;24.61;48.92
11395;BME280;5753;54.402;10.220;2023-07-13T01:28:14;101197.31;;;25.97;46.17
11395;BME280;5753;54.402;10.220;2023-07-13T01:30:43;101206.88;;;25.80;46.56
11395;BME280;5753;54.402;10.220;2023-07-13T01:33:12;101197.97;;;25.60;46.99
11395;BME280;5753;54.402;10.220;2023-07-13T01:35:39;101189.59;;;25.93;46.35
11395;BME280;5753;54.402;10.220;2023-07-13T01:38:06;101199.47;;;25.67;46.65
11395;BME280;5753;54.402;10.220;2023-07-13T01:40:34;101199.22;;;24.83;48.73
11395;BME280;5753;54.402;10.220;2023-07-13T01:43:01;101197.50;;;25.72;46.76
11395;BME280;5753;54.402;10.220;2023-07-13T01:45:28;101207.41;;;25.88;46.41
11395;BME280;5753;54.402;10.220;2023-07-13T01:47:54;101194.94;;;25.91;46.26
11395;BME280;5753;54.402;10.220;2023-07-13T01:50:21;101196.00;;;25.65;46.57
11395;BME280;5753;54.402;10.220;2023-07-13T01:52:47;101196.59;;;25.94;46.65
11395;BME280;5753;54.402;10.220;2023-07-13T01:55:13;101197.50;;;25.05;48.17
11395;BME280;5753;54.402;10.220;2023-07-13T01:57:39;101196.63;;;25.50;47.81
11395;BME280;5753;54.402;10.220;2023-07-13T02:00:08;101191.25;;;25.75;46.30
11395;BME280;5753;54.402;10.220;2023-07-13T02:02:37;101189.53;;;25.74;46.35
11395;BME280;5753;54.402;10.220;2023-07-13T02:05:04;101186.22;;;25.69;46.75
11395;BME280;5753;54.402;10.220;2023-07-13T02:07:30;101190.94;;;26.03;45.62
11395;BME280;5753;54.402;10.220;2023-07-13T02:09:56;101191.25;;;25.95;45.75
11395;BME280;5753;54.402;10.220;2023-07-13T02:12:22;101190.19;;;25.57;46.76
11395;BME280;5753;54.402;10.220;2023-07-13T02:14:49;101189.13;;;25.18;47.67
11395;BME280;5753;54.402;10.220;2023-07-13T02:17:15;101186.75;;;25.55;47.03
11395;BME280;5753;54.402;10.220;2023-07-13T02:19:41;101181.34;;;26.00;45.95
11395;BME280;5753;54.402;10.220;2023-07-13T02:22:07;101191.34;;;25.50;46.93
11395;BME280;5753;54.402;10.220;2023-07-13T02:24:33;101191.59;;;25.44;47.15
11395;BME280;5753;54.402;10.220;2023-07-13T02:27:00;101186.91;;;25.07;48.40
11395;BME280;5753;54.402;10.220;2023-07-13T02:29:26;101184.13;;;25.55;47.25
11395;BME280;5753;54.402;10.220;2023-07-13T02:31:52;101175.47;;;25.94;46.57
11395;BME280;5753;54.402;10.220;2023-07-13T02:34:18;101184.41;;;26.12;45.48
11395;BME280;5753;54.402;10.220;2023-07-13T02:36:44;101176.72;;;25.63;46.71
11395;BME280;5753;54.402;10.220;2023-07-13T02:39:14;101174.84;;;26.09;45.95
11395;BME280;5753;54.402;10.220;2023-07-13T02:41:41;101178.88;;;25.54;47.37
11395;BME280;5753;54.402;10.220;2023-07-13T02:44:07;101168.28;;;24.65;48.58
11395;BME280;5753;54.402;10.220;2023-07-13T02:46:35;101174.00;;;24.76;48.36
11395;BME280;5753;54.402;10.220;2023-07-13T02:49:02;101161.50;;;25.04;48.16
11395;BME280;5753;54.402;10.220;2023-07-13T02:51:29;101153.47;;;24.84;48.66
11395;BME280;5753;54.402;10.220;2023-07-13T02:53:55;101144.94;;;24.54;49.23
11395;BME280;5753;54.402;10.220;2023-07-13T02:56:24;101148.03;;;24.65;49.34
11395;BME280;5753;54.402;10.220;2023-07-13T02:58:51;101153.47;;;24.11;50.57
11395;BME280;5753;54.402;10.220;2023-07-13T03:01:17;101152.47;;;25.54;46.89
11395;BME280;5753;54.402;10.220;2023-07-13T03:03:45;101148.56;;;24.75;49.57
11395;BME280;5753;54.402;10.220;2023-07-13T03:06:13;101158.09;;;25.24;48.32
11395;BME280;5753;54.402;10.220;2023-07-13T03:08:40;101159.31;;;24.45;50.71
11395;BME280;5753;54.402;10.220;2023-07-13T03:11:18;101145.00;;;24.99;50.38
11395;BME280;5753;54.402;10.220;2023-07-13T03:13:45;101144.75;;;24.35;51.73
11395;BME280;5753;54.402;10.220;2023-07-13T03:16:11;101137.53;;;24.87;50.53
11395;BME280;5753;54.402;10.220;2023-07-13T03:18:38;101150.16;;;25.02;50.31
11395;BME280;5753;54.402;10.220;2023-07-13T03:21:05;101149.34;;;24.54;52.37
11395;BME280;5753;54.402;10.220;2023-07-13T03:23:32;101152.06;;;25.42;50.26
11395;BME280;5753;54.402;10.220;2023-07-13T03:26:13;101157.72;;;25.12;50.85
11395;BME280;5753;54.402;10.220;2023-07-13T03:28:40;101153.81;;;24.75;51.73
11395;BME280;5753;54.402;10.220;2023-07-13T03:31:13;101161.50;;;24.81;52.18
11395;BME280;5753;54.402;10.220;2023-07-13T03:33:39;101154.50;;;25.47;50.36
11395;BME280;5753;54.402;10.220;2023-07-13T03:36:07;101161.94;;;25.59;50.55
11395;BME280;5753;54.402;10.220;2023-07-13T03:38:34;101160.44;;;25.52;50.99
11395;BME280;5753;54.402;10.220;2023-07-13T03:41:00;101156.88;;;25.53;50.63
11395;BME280;5753;54.402;10.220;2023-07-13T03:43:27;101159.19;;;24.95;51.87
11395;BME280;5753;54.402;10.220;2023-07-13T03:45:53;101153.66;;;25.68;50.03
11395;BME280;5753;54.402;10.220;2023-07-13T03:48:19;101160.66;;;25.26;51.20
11395;BME280;5753;54.402;10.220;2023-07-13T03:50:46;101156.84;;;25.77;50.51
11395;BME280;5753;54.402;10.220;2023-07-13T03:53:13;101159.31;;;25.59;50.60
11395;BME280;5753;54.402;10.220;2023-07-13T03:55:39;101168.88;;;25.84;50.24
11395;BME280;5753;54.402;10.220;2023-07-13T04:00:54;101173.19;;;25.21;51.35
11395;BME280;5753;54.402;10.220;2023-07-13T04:03:21;101170.78;;;26.41;48.65
11395;BME280;5753;54.402;10.220;2023-07-13T04:05:47;101165.50;;;26.00;50.11
11395;BME280;5753;54.402;10.220;2023-07-13T04:08:13;101181.13;;;25.85;49.92
11395;BME280;5753;54.402;10.220;2023-07-13T04:10:39;101179.81;;;25.95;49.50
11395;BME280;5753;54.402;10.220;2023-07-13T04:13:06;101184.47;;;25.46;51.19
11395;BME280;5753;54.402;10.220;2023-07-13T04:15:33;101180.53;;;25.13;52.51
11395;BME280;5753;54.402;10.220;2023-07-13T04:17:59;101180.16;;;25.65;50.47
11395;BME280;5753;54.402;10.220;2023-07-13T04:20:26;101175.63;;;25.47;51.21
11395;BME280;5753;54.402;10.220;2023-07-13T04:22:52;101178.59;;;25.61;51.28
11395;BME280;5753;54.402;10.220;2023-07-13T04:25:21;101179.69;;;25.78;50.26
11395;BME280;5753;54.402;10.220;2023-07-13T04:27:47;101174.09;;;24.96;51.93
11395;BME280;5753;54.402;10.220;2023-07-13T04:30:13;101180.38;;;26.03;50.27
11395;BME280;5753;54.402;10.220;2023-07-13T04:32:40;101176.03;;;24.44;53.00
11395;BME280;5753;54.402;10.220;2023-07-13T04:35:06;101170.84;;;25.99;49.49
11395;BME280;5753;54.402;10.220;2023-07-13T04:37:32;101177.59;;;25.42;50.20
11395;BME280;5753;54.402;10.220;2023-07-13T04:39:58;101178.94;;;25.52;51.01
11395;BME280;5753;54.402;10.220;2023-07-13T04:42:24;101187.19;;;24.76;52.88
11395;BME280;5753;54.402;10.220;2023-07-13T04:44:51;101189.84;;;25.87;50.46
11395;BME280;5753;54.402;10.220;2023-07-13T04:47:18;101197.00;;;26.46;48.29
11395;BME280;5753;54.402;10.220;2023-07-13T04:49:45;101189.72;;;26.71;47.86
11395;BME280;5753;54.402;10.220;2023-07-13T04:52:12;101196.75;;;26.31;48.24
11395;BME280;5753;54.402;10.220;2023-07-13T04:54:38;101191.44;;;26.72;48.05
11395;BME280;5753;54.402;10.220;2023-07-13T04:57:05;101188.69;;;26.14;48.83
11395;BME280;5753;54.402;10.220;2023-07-13T04:59:35;101191.19;;;26.58;48.08
11395;BME280;5753;54.402;10.220;2023-07-13T05:02:01;101206.75;;;27.22;47.09
11395;BME280;5753;54.402;10.220;2023-07-13T05:04:27;101204.91;;;27.24;47.09
11395;BME280;5753;54.402;10.220;2023-07-13T05:06:53;101209.59;;;26.80;47.28
11395;BME280;5753;54.402;10.220;2023-07-13T05:09:19;101215.66;;;26.02;49.20
11395;BME280;5753;54.402;10.220;2023-07-13T05:11:46;101212.75;;;26.49;48.54
11395;BME280;5753;54.402;10.220;2023-07-13T05:14:12;101218.09;;;26.47;48.27
11395;BME280;5753;54.402;10.220;2023-07-13T05:16:38;101218.22;;;25.38;51.04
11395;BME280;5753;54.402;10.220;2023-07-13T05:19:04;101214.28;;;26.54;48.98
11395;BME280;5753;54.402;10.220;2023-07-13T05:21:30;101231.25;;;26.69;47.84
11395;BME280;5753;54.402;10.220;2023-07-13T05:23:57;101225.44;;;26.61;48.27
11395;BME280;5753;54.402;10.220;2023-07-13T05:26:23;101220.56;;;26.52;48.87
11395;BME280;5753;54.402;10.220;2023-07-13T05:28:49;101222.03;;;27.72;46.88
11395;BME280;5753;54.402;10.220;2023-07-13T05:31:15;101232.09;;;27.46;47.32
11395;BME280;5753;54.402;10.220;2023-07-13T05:33:41;101237.72;;;27.57;46.43
11395;BME280;5753;54.402;10.220;2023-07-13T05:36:08;101232.31;;;27.78;46.03
11395;BME280;5753;54.402;10.220;2023-07-13T05:38:34;101238.38;;;26.67;47.51
11395;BME280;5753;54.402;10.220;2023-07-13T05:41:00;101246.03;;;26.73;48.09
11395;BME280;5753;54.402;10.220;2023-07-13T05:43:26;101245.28;;;26.51;48.29
11395;BME280;5753;54.402;10.220;2023-07-13T05:45:57;101245.19;;;26.91;47.41
11395;BME280;5753;54.402;10.220;2023-07-13T05:48:23;101248.19;;;26.65;47.89
11395;BME280;5753;54.402;10.220;2023-07-13T05:50:49;101251.22;;;26.95;47.65
11395;BME280;5753;54.402;10.220;2023-07-13T05:53:16;101241.69;;;26.91;47.09
11395;BME280;5753;54.402;10.220;2023-07-13T05:55:46;101248.34;;;27.01;47.58
11395;BME280;5753;54.402;10.220;2023-07-13T05:58:17;101244.66;;;27.60;46.58
11395;BME280;5753;54.402;10.220;2023-07-13T06:00:43;101254.91;;;26.72;47.65
11395;BME280;5753;54.402;10.220;2023-07-13T06:03:09;101240.25;;;27.23;46.75
11395;BME280;5753;54.402;10.220;2023-07-13T06:05:39;101234.38;;;26.97;46.97
11395;BME280;5753;54.402;10.220;2023-07-13T06:08:08;101238.25;;;27.28;46.89
11395;BME280;5753;54.402;10.220;2023-07-13T06:10:35;101236.22;;;27.33;46.78
11395;BME280;5753;54.402;10.220;2023-07-13T06:13:02;101230.31;;;25.67;50.04
11395;BME280;5753;54.402;10.220;2023-07-13T06:15:29;101227.00;;;27.23;47.36
11395;BME280;5753;54.402;10.220;2023-07-13T06:17:55;101229.25;;;28.04;45.05
11395;BME280;5753;54.402;10.220;2023-07-13T06:20:21;101239.59;;;27.92;44.84
11395;BME280;5753;54.402;10.220;2023-07-13T06:22:47;101233.53;;;27.16;46.94
11395;BME280;5753;54.402;10.220;2023-07-13T06:25:13;101242.75;;;27.26;46.82
11395;BME280;5753;54.402;10.220;2023-07-13T06:27:39;101235.34;;;28.24;44.99
11395;BME280;5753;54.402;10.220;2023-07-13T06:30:06;101243.44;;;28.03;45.72
11395;BME280;5753;54.402;10.220;2023-07-13T06:32:32;101243.03;;;28.11;45.37
11395;BME280;5753;54.402;10.220;2023-07-13T06:34:58;101252.47;;;27.25;47.09
11395;BME280;5753;54.402;10.220;2023-07-13T06:37:24;101264.34;;;27.90;45.34
11395;BME280;5753;54.402;10.220;2023-07-13T06:39:51;101263.41;;;27.55;46.71
11395;BME280;5753;54.402;10.220;2023-07-13T06:42:17;101267.56;;;27.42;46.53
11395;BME280;5753;54.402;10.220;2023-07-13T06:44:43;101269.34;;;26.84;47.69
11395;BME280;5753;54.402;10.220;2023-07-13T06:47:10;101278.16;;;27.05;47.79
11395;BME280;5753;54.402;10.220;2023-07-13T06:49:36;101268.56;;;27.21;47.56
11395;BME280;5753;54.402;10.220;2023-07-13T06:52:02;101273.16;;;27.36;47.36
11395;BME280;5753;54.402;10.220;2023-07-13T06:54:28;101272.44;;;27.14;46.94
11395;BME280;5753;54.402;10.220;2023-07-13T06:56:54;101271.00;;;27.25;47.27
11395;BME280;5753;54.402;10.220;2023-07-13T06:59:21;101263.72;;;27.68;46.94
11395;BME280;5753;54.402;10.220;2023-07-13T07:01:47;101265.38;;;27.88;46.01
11395;BME280;5753;54.402;10.220;2023-07-13T07:04:13;101272.38;;;27.89;46.38
11395;BME280;5753;54.402;10.220;2023-07-13T07:06:39;101271.88;;;28.17;45.73
11395;BME280;5753;54.402;10.220;2023-07-13T07:09:05;101268.03;;;28.74;44.44
11395;BME280;5753;54.402;10.220;2023-07-13T07:11:32;101267.38;;;29.20;43.39
11395;BME280;5753;54.402;10.220;2023-07-13T07:13:58;101270.59;;;28.43;44.67
11395;BME280;5753;54.402;10.220;2023-07-13T07:16:25;101275.47;;;27.63;46.27
11395;BME280;5753;54.402;10.220;2023-07-13T07:18:51;101272.25;;;28.96;43.62
11395;BME280;5753;54.402;10.220;2023-07-13T07:21:18;101271.88;;;27.45;46.33
11395;BME280;5753;54.402;10.220;2023-07-13T07:23:44;101263.09;;;28.51;44.70
11395;BME280;5753;54.402;10.220;2023-07-13T07:26:10;101267.69;;;27.77;46.04
11395;BME280;5753;54.402;10.220;2023-07-13T07:28:37;101269.56;;;28.28;44.77
11395;BME280;5753;54.402;10.220;2023-07-13T07:31:03;101269.63;;;28.09;45.76
11395;BME280;5753;54.402;10.220;2023-07-13T07:33:29;101265.38;;;28.74;44.61
11395;BME280;5753;54.402;10.220;2023-07-13T07:35:56;101269.41;;;29.48;42.43
11395;BME280;5753;54.402;10.220;2023-07-13T07:38:22;101269.88;;;29.38;42.10
11395;BME280;5753;54.402;10.220;2023-07-13T07:40:48;101272.59;;;29.21;43.21
11395;BME280;5753;54.402;10.220;2023-07-13T07:43:14;101276.56;;;29.77;41.28
11395;BME280;5753;54.402;10.220;2023-07-13T07:45:41;101275.84;;;29.43;41.69
11395;BME280;5753;54.402;10.220;2023-07-13T07:48:07;101275.34;;;29.98;40.16
11395;BME280;5753;54.402;10.220;2023-07-13T07:50:35;101259.94;;;31.20;39.42
11395;BME280;5753;54.402;10.220;2023-07-13T07:53:01;101268.44;;;31.54;37.73
11395;BME280;5753;54.402;10.220;2023-07-13T07:55:28;101261.56;;;31.64;38.14
11395;BME280;5753;54.402;10.220;2023-07-13T07:57:56;101269.59;;;31.50;39.36
11395;BME280;5753;54.402;10.220;2023-07-13T08:00:22;101255.44;;;30.05;40.33
11395;BME280;5753;54.402;10.220;2023-07-13T08:02:48;101255.00;;;30.72;40.70
11395;BME280;5753;54.402;10.220;2023-07-13T08:05:15;101263.78;;;30.88;43.27
11395;BME280;5753;54.402;10.220;2023-07-13T08:07:41;101260.38;;;29.34;43.44
11395;BME280;5753;54.402;10.220;2023-07-13T08:10:07;101265.00;;;27.96;46.04
11395;BME280;5753;54.402;10.220;2023-07-13T08:12:38;101271.94;;;27.98;48.58
11395;BME280;5753;54.402;10.220;2023-07-13T08:15:06;101256.41;;;25.75;50.17
11395;BME280;5753;54.402;10.220;2023-07-13T08:17:32;101276.09;;;27.30;47.99
11395;BME280;5753;54.402;10.220;2023-07-13T08:19:58;101274.06;;;26.77;50.39
11395;BME280;5753;54.402;10.220;2023-07-13T08:22:24;101273.44;;;27.68;49.23
11395;BME280;5753;54.402;10.220;2023-07-13T08:24:51;101276.69;;;27.92;47.87
11395;BME280;5753;54.402;10.220;2023-07-13T08:27:23;101261.13;;;28.03;46.11
11395;BME280;5753;54.402;10.220;2023-07-13T08:29:49;101256.66;;;28.20;44.47
11395;BME280;5753;54.402;10.220;2023-07-13T08:32:16;101264.84;;;27.25;45.97
11395;BME280;5753;54.402;10.220;2023-07-13T08:34:43;101273.03;;;28.11;45.45
11395;BME280;5753;54.402;10.220;2023-07-13T08:37:10;101275.97;;;27.88;45.18
11395;BME280;5753;54.402;10.220;2023-07-13T08:39:36;101272.56;;;27.29;46.79
11395;BME280;5753;54.402;10.220;2023-07-13T08:42:12;101285.03;;;27.27;46.92
11395;BME280;5753;54.402;10.220;2023-07-13T08:45:08;101276.84;;;28.42;45.18
11395;BME280;5753;54.402;10.220;2023-07-13T08:47:44;101274.91;;;28.09;47.12
11395;BME280;5753;54.402;10.220;2023-07-13T08:50:14;101274.75;;;28.12;46.32
11395;BME280;5753;54.402;10.220;2023-07-13T08:52:42;101279.81;;;28.69;45.39
11395;BME280;5753;54.402;10.220;2023-07-13T08:57:43;101294.59;;;26.91;47.98
11395;BME280;5753;54.402;10.220;2023-07-13T09:00:12;101297.84;;;26.16;50.25
11395;BME280;5753;54.402;10.220;2023-07-13T09:05:19;101303.84;;;25.31;53.65
11395;BME280;5753;54.402;10.220;2023-07-13T09:11:02;101289.66;;;24.62;55.47
11395;BME280;5753;54.402;10.220;2023-07-13T09:16:35;101283.59;;;24.83;54.03
11395;BME280;5753;54.402;10.220;2023-07-13T09:19:05;101297.63;;;24.60;54.63
11395;BME280;5753;54.402;10.220;2023-07-13T09:21:36;101296.66;;;24.36;54.26
11395;BME280;5753;54.402;10.220;2023-07-13T09:26:41;101295.25;;;25.93;51.32
11395;BME280;5753;54.402;10.220;2023-07-13T09:29:28;101292.44;;;25.97;52.97
11395;BME280;5753;54.402;10.220;2023-07-13T09:31:58;101288.84;;;25.98;54.60
11395;BME280;5753;54.402;10.220;2023-07-13T09:34:27;101291.75;;;27.53;53.41
11395;BME280;5753;54.402;10.220;2023-07-13T09:36:55;101288.81;;;28.32;52.58
11395;BME280;5753;54.402;10.220;2023-07-13T09:39:25;101283.34;;;28.17;51.93
11395;BME280;5753;54.402;10.220;2023-07-13T09:42:18;101276.00;;;28.22;49.77
11395;BME280;5753;54.402;10.220;2023-07-13T09:44:51;101281.00;;;27.94;51.50
11395;BME280;5753;54.402;10.220;2023-07-13T09:47:24;101272.94;;;29.15;48.72
11395;BME280;5753;54.402;10.220;2023-07-13T09:50:03;101280.16;;;28.63;49.18
11395;BME280;5753;54.402;10.220;2023-07-13T09:52:51;101282.84;;;28.96;47.69
11395;BME280;5753;54.402;10.220;2023-07-13T09:58:21;101278.59;;;30.63;46.10
11395;BME280;5753;54.402;10.220;2023-07-13T10:00:59;101277.22;;;29.18;46.83
11395;BME280;5753;54.402;10.220;2023-07-13T10:03:29;101280.19;;;30.22;46.19
11395;BME280;5753;54.402;10.220;2023-07-13T10:06:09;101272.00;;;30.25;44.66
11395;BME280;5753;54.402;10.220;2023-07-13T10:08:36;101272.75;;;30.57;43.66
11395;BME280;5753;54.402;10.220;2023-07-13T10:13:46;101263.94;;;32.35;42.44
11395;BME280;5753;54.402;10.220;2023-07-13T10:16:15;101262.94;;;31.71;41.98
11395;BME280;5753;54.402;10.220;2023-07-13T10:18:59;101269.22;;;30.28;43.13
11395;BME280;5753;54.402;10.220;2023-07-13T10:21:35;101279.25;;;29.45;43.51
11395;BME280;5753;54.402;10.220;2023-07-13T10:24:15;101271.09;;;27.98;43.15
11395;BME280;5753;54.402;10.220;2023-07-13T10:29:27;101294.47;;;27.71;45.97
11395;BME280;5753;54.402;10.220;2023-07-13T10:31:54;101290.06;;;30.20;42.98
11395;BME280;5753;54.402;10.220;2023-07-13T10:34:23;101281.94;;;30.37;41.34
11395;BME280;5753;54.402;10.220;2023-07-13T10:36:51;101282.44;;;30.44;43.83
11395;BME280;5753;54.402;10.220;2023-07-13T10:39:23;101274.34;;;30.31;41.02
11395;BME280;5753;54.402;10.220;2023-07-13T10:42:05;101273.75;;;29.80;40.63
11395;BME280;5753;54.402;10.220;2023-07-13T10:44:33;101271.84;;;31.29;37.76
11395;BME280;5753;54.402;10.220;2023-07-13T10:47:02;101285.47;;;30.07;38.89
11395;BME280;5753;54.402;10.220;2023-07-13T10:49:33;101277.09;;;28.70;37.01
11395;BME280;5753;54.402;10.220;2023-07-13T10:52:01;101277.38;;;29.48;36.81
11395;BME280;5753;54.402;10.220;2023-07-13T10:54:31;101290.97;;;29.41;37.02
11395;BME280;5753;54.402;10.220;2023-07-13T10:57:41;101284.13;;;28.37;36.49
11395;BME280;5753;54.402;10.220;2023-07-13T11:00:19;101288.25;;;29.59;35.68
11395;BME280;5753;54.402;10.220;2023-07-13T11:02:57;101290.78;;;28.28;36.31
11395;BME280;5753;54.402;10.220;2023-07-13T11:05:28;101285.00;;;28.37;36.76
11395;BME280;5753;54.402;10.220;2023-07-13T11:10:55;101297.59;;;29.82;34.83
11395;BME280;5753;54.402;10.220;2023-07-13T11:14:00;101291.91;;;31.20;33.43
11395;BME280;5753;54.402;10.220;2023-07-13T11:21:31;101296.69;;;31.98;34.01
11395;BME280;5753;54.402;10.220;2023-07-13T11:24:17;101338.31;;;30.58;34.60
11395;BME280;5753;54.402;10.220;2023-07-13T11:26:51;101308.72;;;31.90;33.46
11395;BME280;5753;54.402;10.220;2023-07-13T11:31:56;101309.38;;;31.94;33.89
11395;BME280;5753;54.402;10.220;2023-07-13T11:34:31;101298.78;;;32.97;32.88
11395;BME280;5753;54.402;10.220;2023-07-13T11:37:00;101298.09;;;32.30;33.92
11395;BME280;5753;54.402;10.220;2023-07-13T11:39:32;101306.28;;;30.89;34.99
11395;BME280;5753;54.402;10.220;2023-07-13T11:42:05;101319.63;;;31.32;35.51
11395;BME280;5753;54.402;10.220;2023-07-13T11:44:35;101310.66;;;30.76;31.54
11395;BME280;5753;54.402;10.220;2023-07-13T11:47:14;101321.06;;;30.65;33.01
11395;BME280;5753;54.402;10.220;2023-07-13T11:49:50;101321.63;;;31.28;31.88
11395;BME280;5753;54.402;10.220;2023-07-13T11:52:19;101313.16;;;31.63;30.94
11395;BME280;5753;54.402;10.220;2023-07-13T11:54:53;101308.78;;;31.62;32.47
11395;BME280;5753;54.402;10.220;2023-07-13T11:57:41;101315.88;;;30.48;32.26
11395;BME280;5753;54.402;10.220;2023-07-13T12:00:16;101325.22;;;32.10;30.60
11395;BME280;5753;54.402;10.220;2023-07-13T12:02:45;101325.00;;;32.27;28.81
11395;BME280;5753;54.402;10.220;2023-07-13T12:05:13;101325.06;;;32.91;28.83
11395;BME280;5753;54.402;10.220;2023-07-13T12:07:41;101319.88;;;33.51;29.23
11395;BME280;5753;54.402;10.220;2023-07-13T12:10:28;101327.47;;;34.64;26.65
11395;BME280;5753;54.402;10.220;2023-07-13T12:13:00;101328.19;;;35.89;26.20
11395;BME280;5753;54.402;10.220;2023-07-13T12:15:40;101316.56;;;31.65;28.74
11395;BME280;5753;54.402;10.220;2023-07-13T12:18:20;101319.06;;;31.82;30.10
11395;BME280;5753;54.402;10.220;2023-07-13T12:20:47;101334.88;;;32.65;29.18
11395;BME280;5753;54.402;10.220;2023-07-13T12:23:29;101336.16;;;31.92;29.04
11395;BME280;5753;54.402;10.220;2023-07-13T12:25:58;101332.66;;;33.71;28.15
11395;BME280;5753;54.402;10.220;2023-07-13T12:31:01;101331.50;;;34.69;25.27
11395;BME280;5753;54.402;10.220;2023-07-13T12:33:29;101330.16;;;34.75;25.18
11395;BME280;5753;54.402;10.220;2023-07-13T12:35:58;101327.44;;;34.53;26.38
11395;BME280;5753;54.402;10.220;2023-07-13T12:38:26;101335.34;;;35.00;25.80
11395;BME280;5753;54.402;10.220;2023-07-13T12:40:53;101329.19;;;35.65;25.96
11395;BME280;5753;54.402;10.220;2023-07-13T12:43:21;101343.59;;;34.86;26.47
11395;BME280;5753;54.402;10.220;2023-07-13T12:46:00;101344.94;;;36.45;24.05
11395;BME280;5753;54.402;10.220;2023-07-13T12:48:28;101337.66;;;36.57;24.59
11395;BME280;5753;54.402;10.220;2023-07-13T12:50:55;101344.09;;;37.67;24.03
11395;BME280;5753;54.402;10.220;2023-07-13T12:53:29;101346.84;;;36.22;23.93
11395;BME280;5753;54.402;10.220;2023-07-13T12:56:02;101342.88;;;35.29;24.73
11395;BME280;5753;54.402;10.220;2023-07-13T12:58:42;101354.56;;;34.83;24.62
11395;BME280;5753;54.402;10.220;2023-07-13T13:01:12;101365.44;;;34.58;24.02
11395;BME280;5753;54.402;10.220;2023-07-13T13:03:44;101354.06;;;34.19;25.28
11395;BME280;5753;54.402;10.220;2023-07-13T13:08:46;101376.03;;;32.35;29.01
11395;BME280;5753;54.402;10.220;2023-07-13T13:11:15;101373.75;;;31.33;30.61
11395;BME280;5753;54.402;10.220;2023-07-13T13:13:42;101374.94;;;32.25;30.62
11395;BME280;5753;54.402;10.220;2023-07-13T13:18:39;101364.63;;;32.46;30.20
11395;BME280;5753;54.402;10.220;2023-07-13T13:21:05;101375.66;;;29.63;32.45
11395;BME280;5753;54.402;10.220;2023-07-13T13:23:31;101379.25;;;30.71;30.64
11395;BME280;5753;54.402;10.220;2023-07-13T13:25:57;101377.44;;;30.42;31.53
11395;BME280;5753;54.402;10.220;2023-07-13T13:28:24;101381.75;;;29.65;32.07
11395;BME280;5753;54.402;10.220;2023-07-13T13:30:51;101387.16;;;30.27;32.00
11395;BME280;5753;54.402;10.220;2023-07-13T13:33:19;101389.13;;;29.60;34.54
11395;BME280;5753;54.402;10.220;2023-07-13T13:35:46;101391.50;;;31.04;33.25
11395;BME280;5753;54.402;10.220;2023-07-13T13:38:17;101398.06;;;31.69;30.32
11395;BME280;5753;54.402;10.220;2023-07-13T13:40:46;101403.59;;;30.49;32.00
11395;BME280;5753;54.402;10.220;2023-07-13T13:43:17;101406.81;;;30.24;32.61
11395;BME280;5753;54.402;10.220;2023-07-13T13:45:44;101391.66;;;31.30;32.42
11395;BME280;5753;54.402;10.220;2023-07-13T13:48:16;101395.25;;;32.40;31.10